sensor_id;sensor_type;location;lat;lon;timestamp;pressure;altitude;pressure_sealevel;temperature;humidity
16355;BME280;8287;51.644;8.494;2023-03-15T00:00:07;99845.50;;;4.83;68.54
16355;BME280;8287;51.644;8.494;2023-03-15T00:02:35;99836.00;;;4.87;68.58
16355;BME280;8287;51.644;8.494;2023-03-15T00:05:01;99851.13;;;4.71;68.80
16355;BME280;8287;51.644;8.494;2023-03-15T00:07:29;99842.88;;;4.83;68.52
16355;BME280;8287;51.644;8.494;2023-03-15T00:09:56;99838.88;;;4.90;68.36
16355;BME280;8287;51.644;8.494;2023-03-15T00:12:23;99849.38;;;4.90;68.18
16355;BME280;8287;51.644;8.494;2023-03-15T00:14:50;99849.84;;;4.92;68.23
16355;BME280;8287;51.644;8.494;2023-03-15T00:17:17;99848.97;;;5.02;68.59
16355;BME280;8287;51.644;8.494;2023-03-15T00:19:43;99863.06;;;4.87;68.77
16355;BME280;8287;51.644;8.494;2023-03-15T00:22:12;99862.44;;;4.95;68.51
16355;BME280;8287;51.644;8.494;2023-03-15T00:24:40;99853.66;;;5.05;68.55
16355;BME280;8287;51.644;8.494;2023-03-15T00:27:07;99864.16;;;5.05;68.67
16355;BME280;8287;51.644;8.494;2023-03-15T00:29:33;99857.13;;;5.00;68.95
16355;BME280;8287;51.644;8.494;2023-03-15T00:32:00;99870.44;;;5.09;69.10
16355;BME280;8287;51.644;8.494;2023-03-15T00:34:27;99864.16;;;5.05;68.96
16355;BME280;8287;51.644;8.494;2023-03-15T00:36:53;99864.63;;;5.12;69.25
16355;BME280;8287;51.644;8.494;2023-03-15T00:39:20;99877.13;;;5.20;69.07
16355;BME280;8287;51.644;8.494;2023-03-15T00:41:51;99876.91;;;5.16;68.74
16355;BME280;8287;51.644;8.494;2023-03-15T00:44:21;99883.78;;;5.36;68.71
16355;BME280;8287;51.644;8.494;2023-03-15T00:46:48;99878.25;;;5.37;67.94
16355;BME280;8287;51.644;8.494;2023-03-15T00:49:14;99877.75;;;5.35;67.76
16355;BME280;8287;51.644;8.494;2023-03-15T00:51:41;99874.78;;;5.42;67.75
16355;BME280;8287;51.644;8.494;2023-03-15T00:54:09;99875.78;;;5.46;67.43
16355;BME280;8287;51.644;8.494;2023-03-15T00:56:38;99872.44;;;5.40;67.75
16355;BME280;8287;51.644;8.494;2023-03-15T00:59:06;99872.53;;;5.54;67.12
16355;BME280;8287;51.644;8.494;2023-03-15T01:01:33;99884.47;;;5.65;66.95
16355;BME280;8287;51.644;8.494;2023-03-15T01:03:59;99883.94;;;5.68;67.07
16355;BME280;8287;51.644;8.494;2023-03-15T01:06:27;99892.31;;;5.70;67.10
16355;BME280;8287;51.644;8.494;2023-03-15T01:08:54;99891.72;;;5.73;66.87
16355;BME280;8287;51.644;8.494;2023-03-15T01:11:23;99912.31;;;5.66;66.57
16355;BME280;8287;51.644;8.494;2023-03-15T01:13:50;99912.69;;;5.36;71.10
16355;BME280;8287;51.644;8.494;2023-03-15T01:16:18;99914.53;;;5.07;74.45
16355;BME280;8287;51.644;8.494;2023-03-15T01:18:45;99908.63;;;4.68;76.97
16355;BME280;8287;51.644;8.494;2023-03-15T01:21:13;99919.63;;;4.70;78.46
16355;BME280;8287;51.644;8.494;2023-03-15T01:23:41;99915.78;;;4.57;80.14
16355;BME280;8287;51.644;8.494;2023-03-15T01:26:10;99919.31;;;4.43;81.79
16355;BME280;8287;51.644;8.494;2023-03-15T01:28:37;99925.72;;;4.27;84.11
16355;BME280;8287;51.644;8.494;2023-03-15T01:31:04;99920.47;;;4.27;84.32
16355;BME280;8287;51.644;8.494;2023-03-15T01:33:32;99926.28;;;4.19;85.73
16355;BME280;8287;51.644;8.494;2023-03-15T01:35:59;99918.97;;;4.16;86.44
16355;BME280;8287;51.644;8.494;2023-03-15T01:38:26;99930.97;;;4.22;85.72
16355;BME280;8287;51.644;8.494;2023-03-15T01:40:53;99934.72;;;4.11;86.71
16355;BME280;8287;51.644;8.494;2023-03-15T01:43:21;99937.91;;;4.03;86.54
16355;BME280;8287;51.644;8.494;2023-03-15T01:48:37;99933.22;;;4.00;86.87
16355;BME280;8287;51.644;8.494;2023-03-15T01:51:12;99935.84;;;4.00;86.66
16355;BME280;8287;51.644;8.494;2023-03-15T01:53:42;99934.28;;;3.99;86.77
16355;BME280;8287;51.644;8.494;2023-03-15T01:56:10;99936.66;;;3.95;86.96
16355;BME280;8287;51.644;8.494;2023-03-15T01:58:40;99927.22;;;3.94;87.32
16355;BME280;8287;51.644;8.494;2023-03-15T02:01:09;99925.19;;;3.86;87.76
16355;BME280;8287;51.644;8.494;2023-03-15T02:03:39;99933.28;;;3.90;87.82
16355;BME280;8287;51.644;8.494;2023-03-15T02:06:13;99922.25;;;3.93;87.42
16355;BME280;8287;51.644;8.494;2023-03-15T02:08:45;99928.81;;;3.85;88.20
16355;BME280;8287;51.644;8.494;2023-03-15T02:11:16;99921.81;;;3.76;88.21
16355;BME280;8287;51.644;8.494;2023-03-15T02:13:44;99917.88;;;3.78;88.90
16355;BME280;8287;51.644;8.494;2023-03-15T02:16:13;99923.59;;;3.85;88.95
16355;BME280;8287;51.644;8.494;2023-03-15T02:18:41;99918.66;;;3.79;89.00
16355;BME280;8287;51.644;8.494;2023-03-15T02:21:13;99917.63;;;3.75;88.79
16355;BME280;8287;51.644;8.494;2023-03-15T02:23:52;99921.25;;;3.84;88.64
16355;BME280;8287;51.644;8.494;2023-03-15T02:26:28;99910.81;;;3.74;89.24
16355;BME280;8287;51.644;8.494;2023-03-15T02:28:58;99917.03;;;3.88;89.27
16355;BME280;8287;51.644;8.494;2023-03-15T02:31:25;99911.78;;;3.88;89.25
16355;BME280;8287;51.644;8.494;2023-03-15T02:33:52;99908.59;;;3.96;89.35
16355;BME280;8287;51.644;8.494;2023-03-15T02:36:22;99905.97;;;4.01;88.88
16355;BME280;8287;51.644;8.494;2023-03-15T02:38:49;99908.53;;;4.06;88.12
16355;BME280;8287;51.644;8.494;2023-03-15T02:41:19;99915.31;;;4.12;87.74
16355;BME280;8287;51.644;8.494;2023-03-15T02:43:48;99918.97;;;4.16;87.79
16355;BME280;8287;51.644;8.494;2023-03-15T02:46:20;99908.75;;;4.14;87.64
16355;BME280;8287;51.644;8.494;2023-03-15T02:48:47;99929.47;;;4.16;87.79
16355;BME280;8287;51.644;8.494;2023-03-15T02:51:18;99934.72;;;4.11;88.49
16355;BME280;8287;51.644;8.494;2023-03-15T02:53:46;99940.78;;;4.11;88.53
16355;BME280;8287;51.644;8.494;2023-03-15T02:56:12;99945.00;;;4.02;88.37
16355;BME280;8287;51.644;8.494;2023-03-15T02:58:39;99953.88;;;4.11;88.40
16355;BME280;8287;51.644;8.494;2023-03-15T03:01:06;99950.47;;;4.11;88.88
16355;BME280;8287;51.644;8.494;2023-03-15T03:03:34;99958.88;;;4.08;89.20
16355;BME280;8287;51.644;8.494;2023-03-15T03:06:00;99960.94;;;4.11;89.08
16355;BME280;8287;51.644;8.494;2023-03-15T03:08:27;99973.03;;;4.07;89.58
16355;BME280;8287;51.644;8.494;2023-03-15T03:10:53;99976.91;;;4.14;89.54
16355;BME280;8287;51.644;8.494;2023-03-15T03:13:20;99974.03;;;4.11;89.72
16355;BME280;8287;51.644;8.494;2023-03-15T03:15:48;99982.97;;;4.10;89.86
16355;BME280;8287;51.644;8.494;2023-03-15T03:18:22;99976.94;;;4.09;90.41
16355;BME280;8287;51.644;8.494;2023-03-15T03:20:50;99986.59;;;4.14;90.50
16355;BME280;8287;51.644;8.494;2023-03-15T03:23:20;99984.78;;;4.14;90.22
16355;BME280;8287;51.644;8.494;2023-03-15T03:25:50;99990.81;;;4.15;90.43
16355;BME280;8287;51.644;8.494;2023-03-15T03:28:16;99992.09;;;4.22;90.26
16355;BME280;8287;51.644;8.494;2023-03-15T03:30:43;100002.81;;;4.26;90.19
16355;BME280;8287;51.644;8.494;2023-03-15T03:33:10;100000.97;;;4.26;90.13
16355;BME280;8287;51.644;8.494;2023-03-15T03:35:36;100000.72;;;4.23;90.34
16355;BME280;8287;51.644;8.494;2023-03-15T03:38:04;100009.13;;;4.20;90.32
16355;BME280;8287;51.644;8.494;2023-03-15T03:40:31;100013.00;;;4.27;90.28
16355;BME280;8287;51.644;8.494;2023-03-15T03:42:57;100011.19;;;4.28;90.17
16355;BME280;8287;51.644;8.494;2023-03-15T03:45:24;100021.13;;;4.31;90.26
16355;BME280;8287;51.644;8.494;2023-03-15T03:47:50;100018.50;;;4.31;89.97
16355;BME280;8287;51.644;8.494;2023-03-15T03:50:17;100021.66;;;4.33;90.15
16355;BME280;8287;51.644;8.494;2023-03-15T03:52:44;100021.13;;;4.36;90.20
16355;BME280;8287;51.644;8.494;2023-03-15T03:55:12;100027.91;;;4.37;89.76
16355;BME280;8287;51.644;8.494;2023-03-15T03:57:38;100038.91;;;4.39;90.29
16355;BME280;8287;51.644;8.494;2023-03-15T04:00:06;100026.34;;;4.41;90.06
16355;BME280;8287;51.644;8.494;2023-03-15T04:02:34;100040.47;;;4.45;90.31
16355;BME280;8287;51.644;8.494;2023-03-15T04:05:00;100041.53;;;4.44;90.34
16355;BME280;8287;51.644;8.494;2023-03-15T04:07:27;100045.97;;;4.43;90.39
16355;BME280;8287;51.644;8.494;2023-03-15T04:09:54;100048.66;;;4.38;90.71
16355;BME280;8287;51.644;8.494;2023-03-15T04:12:22;100057.03;;;4.40;90.79
16355;BME280;8287;51.644;8.494;2023-03-15T04:14:48;100064.63;;;4.42;91.06
16355;BME280;8287;51.644;8.494;2023-03-15T04:17:15;100063.53;;;4.48;90.91
16355;BME280;8287;51.644;8.494;2023-03-15T04:19:42;100059.06;;;4.48;90.69
16355;BME280;8287;51.644;8.494;2023-03-15T04:22:11;100065.34;;;4.52;90.91
16355;BME280;8287;51.644;8.494;2023-03-15T04:24:39;100064.31;;;4.48;91.42
16355;BME280;8287;51.644;8.494;2023-03-15T04:27:06;100066.69;;;4.50;90.88
16355;BME280;8287;51.644;8.494;2023-03-15T04:29:34;100065.06;;;4.54;91.12
16355;BME280;8287;51.644;8.494;2023-03-15T04:32:01;100073.44;;;4.56;91.29
16355;BME280;8287;51.644;8.494;2023-03-15T04:34:29;100063.75;;;4.56;91.27
16355;BME280;8287;51.644;8.494;2023-03-15T04:36:56;100067.44;;;4.55;91.35
16355;BME280;8287;51.644;8.494;2023-03-15T04:39:23;100076.56;;;4.63;91.49
16355;BME280;8287;51.644;8.494;2023-03-15T04:41:49;100076.63;;;4.58;91.65
16355;BME280;8287;51.644;8.494;2023-03-15T04:44:16;100085.47;;;4.67;91.29
16355;BME280;8287;51.644;8.494;2023-03-15T04:46:44;100087.06;;;4.63;91.54
16355;BME280;8287;51.644;8.494;2023-03-15T04:49:11;100092.06;;;4.64;91.44
16355;BME280;8287;51.644;8.494;2023-03-15T04:51:37;100093.34;;;4.67;91.45
16355;BME280;8287;51.644;8.494;2023-03-15T04:54:04;100095.19;;;4.66;91.95
16355;BME280;8287;51.644;8.494;2023-03-15T04:56:31;100099.09;;;4.74;91.35
16355;BME280;8287;51.644;8.494;2023-03-15T04:58:57;100107.47;;;4.76;91.81
16355;BME280;8287;51.644;8.494;2023-03-15T05:01:27;100108.53;;;4.75;91.77
16355;BME280;8287;51.644;8.494;2023-03-15T05:03:56;100101.13;;;4.82;91.30
16355;BME280;8287;51.644;8.494;2023-03-15T05:06:23;100111.09;;;4.85;91.62
16355;BME280;8287;51.644;8.494;2023-03-15T05:08:50;100119.22;;;4.83;91.59
16355;BME280;8287;51.644;8.494;2023-03-15T05:11:17;100113.22;;;4.83;91.54
16355;BME280;8287;51.644;8.494;2023-03-15T05:13:44;100118.16;;;4.84;91.41
16355;BME280;8287;51.644;8.494;2023-03-15T05:16:10;100122.16;;;4.77;91.33
16355;BME280;8287;51.644;8.494;2023-03-15T05:18:37;100132.63;;;4.82;90.84
16355;BME280;8287;51.644;8.494;2023-03-15T05:21:06;100128.16;;;4.82;90.89
16355;BME280;8287;51.644;8.494;2023-03-15T05:23:33;100124.72;;;4.87;90.33
16355;BME280;8287;51.644;8.494;2023-03-15T05:25:59;100134.22;;;4.83;90.67
16355;BME280;8287;51.644;8.494;2023-03-15T05:28:26;100126.59;;;4.86;90.22
16355;BME280;8287;51.644;8.494;2023-03-15T05:30:52;100133.66;;;4.86;90.36
16355;BME280;8287;51.644;8.494;2023-03-15T05:33:20;100138.06;;;4.95;89.94
16355;BME280;8287;51.644;8.494;2023-03-15T05:35:47;100148.34;;;4.92;90.14
16355;BME280;8287;51.644;8.494;2023-03-15T05:38:15;100154.63;;;4.91;90.02
16355;BME280;8287;51.644;8.494;2023-03-15T05:40:44;100146.47;;;4.92;89.95
16355;BME280;8287;51.644;8.494;2023-03-15T05:43:11;100147.78;;;4.95;90.25
16355;BME280;8287;51.644;8.494;2023-03-15T05:45:39;100165.13;;;4.91;89.70
16355;BME280;8287;51.644;8.494;2023-03-15T05:48:06;100161.97;;;4.89;89.61
16355;BME280;8287;51.644;8.494;2023-03-15T05:50:32;100170.41;;;4.86;89.42
16355;BME280;8287;51.644;8.494;2023-03-15T05:52:59;100175.09;;;4.94;89.33
16355;BME280;8287;51.644;8.494;2023-03-15T05:55:27;100178.78;;;4.88;89.37
16355;BME280;8287;51.644;8.494;2023-03-15T05:57:54;100183.50;;;4.91;89.45
16355;BME280;8287;51.644;8.494;2023-03-15T06:00:21;100184.53;;;4.95;89.40
16355;BME280;8287;51.644;8.494;2023-03-15T06:02:47;100193.44;;;4.99;90.04
16355;BME280;8287;51.644;8.494;2023-03-15T06:05:14;100193.47;;;4.94;89.66
16355;BME280;8287;51.644;8.494;2023-03-15T06:07:42;100188.19;;;4.99;90.13
16355;BME280;8287;51.644;8.494;2023-03-15T06:10:10;100196.06;;;4.99;90.24
16355;BME280;8287;51.644;8.494;2023-03-15T06:12:39;100211.03;;;4.98;90.00
16355;BME280;8287;51.644;8.494;2023-03-15T06:15:07;100212.34;;;4.96;90.11
16355;BME280;8287;51.644;8.494;2023-03-15T06:17:33;100216.84;;;4.95;90.13
16355;BME280;8287;51.644;8.494;2023-03-15T06:20:00;100227.09;;;4.92;90.32
16355;BME280;8287;51.644;8.494;2023-03-15T06:22:27;100229.41;;;4.93;90.32
16355;BME280;8287;51.644;8.494;2023-03-15T06:24:53;100240.22;;;4.87;90.44
16355;BME280;8287;51.644;8.494;2023-03-15T06:27:20;100239.16;;;4.93;90.08
16355;BME280;8287;51.644;8.494;2023-03-15T06:29:48;100245.72;;;4.95;90.01
16355;BME280;8287;51.644;8.494;2023-03-15T06:32:15;100243.88;;;4.91;90.09
16355;BME280;8287;51.644;8.494;2023-03-15T06:34:42;100262.53;;;4.89;89.97
16355;BME280;8287;51.644;8.494;2023-03-15T06:37:08;100262.75;;;4.98;89.75
16355;BME280;8287;51.644;8.494;2023-03-15T06:39:38;100279.28;;;4.98;89.49
16355;BME280;8287;51.644;8.494;2023-03-15T06:42:05;100275.34;;;5.01;89.62
16355;BME280;8287;51.644;8.494;2023-03-15T06:44:32;100274.00;;;5.08;89.41
16355;BME280;8287;51.644;8.494;2023-03-15T06:47:00;100272.19;;;5.04;89.15
16355;BME280;8287;51.644;8.494;2023-03-15T06:49:27;100271.38;;;5.08;88.91
16355;BME280;8287;51.644;8.494;2023-03-15T06:51:55;100289.22;;;5.11;88.84
16355;BME280;8287;51.644;8.494;2023-03-15T06:54:21;100288.44;;;5.06;88.94
16355;BME280;8287;51.644;8.494;2023-03-15T06:56:48;100280.56;;;5.11;88.47
16355;BME280;8287;51.644;8.494;2023-03-15T06:59:15;100293.13;;;5.19;88.12
16355;BME280;8287;51.644;8.494;2023-03-15T07:01:41;100291.81;;;5.16;88.19
16355;BME280;8287;51.644;8.494;2023-03-15T07:04:09;100298.88;;;5.21;88.10
16355;BME280;8287;51.644;8.494;2023-03-15T07:06:36;100301.25;;;5.22;88.08
16355;BME280;8287;51.644;8.494;2023-03-15T07:09:03;100308.91;;;5.14;87.33
16355;BME280;8287;51.644;8.494;2023-03-15T07:11:31;100308.88;;;5.19;87.39
16355;BME280;8287;51.644;8.494;2023-03-15T07:13:57;100316.50;;;5.20;87.52
16355;BME280;8287;51.644;8.494;2023-03-15T07:16:24;100314.91;;;5.19;87.57
16355;BME280;8287;51.644;8.494;2023-03-15T07:18:51;100311.56;;;5.09;87.32
16355;BME280;8287;51.644;8.494;2023-03-15T07:21:21;100322.00;;;5.19;87.84
16355;BME280;8287;51.644;8.494;2023-03-15T07:23:47;100322.28;;;5.17;88.09
16355;BME280;8287;51.644;8.494;2023-03-15T07:26:14;100324.13;;;5.17;87.84
16355;BME280;8287;51.644;8.494;2023-03-15T07:28:41;100335.66;;;5.21;87.45
16355;BME280;8287;51.644;8.494;2023-03-15T07:31:09;100340.13;;;5.20;87.03
16355;BME280;8287;51.644;8.494;2023-03-15T07:33:37;100335.16;;;5.19;87.46
16355;BME280;8287;51.644;8.494;2023-03-15T07:36:04;100342.22;;;5.23;87.40
16355;BME280;8287;51.644;8.494;2023-03-15T07:38:34;100338.28;;;5.26;87.01
16355;BME280;8287;51.644;8.494;2023-03-15T07:41:01;100345.88;;;5.32;86.79
16355;BME280;8287;51.644;8.494;2023-03-15T07:43:28;100337.72;;;5.29;86.08
16355;BME280;8287;51.644;8.494;2023-03-15T07:45:55;100346.38;;;5.34;85.72
16355;BME280;8287;51.644;8.494;2023-03-15T07:48:21;100346.88;;;5.36;86.27
16355;BME280;8287;51.644;8.494;2023-03-15T07:50:51;100349.75;;;5.40;85.80
16355;BME280;8287;51.644;8.494;2023-03-15T07:53:17;100357.13;;;5.43;85.02
16355;BME280;8287;51.644;8.494;2023-03-15T07:55:47;100355.81;;;5.40;84.45
16355;BME280;8287;51.644;8.494;2023-03-15T07:58:14;100354.63;;;5.66;84.46
16355;BME280;8287;51.644;8.494;2023-03-15T08:00:41;100370.31;;;5.86;84.68
16355;BME280;8287;51.644;8.494;2023-03-15T08:03:08;100366.78;;;6.06;83.24
16355;BME280;8287;51.644;8.494;2023-03-15T08:05:35;100361.47;;;6.16;81.83
16355;BME280;8287;51.644;8.494;2023-03-15T08:08:02;100368.72;;;6.34;80.92
16355;BME280;8287;51.644;8.494;2023-03-15T08:10:28;100371.97;;;6.54;80.62
16355;BME280;8287;51.644;8.494;2023-03-15T08:12:56;100377.28;;;6.77;80.44
16355;BME280;8287;51.644;8.494;2023-03-15T08:15:23;100373.75;;;6.87;79.26
16355;BME280;8287;51.644;8.494;2023-03-15T08:17:49;100387.84;;;7.01;77.57
16355;BME280;8287;51.644;8.494;2023-03-15T08:20:16;100390.94;;;7.08;77.48
16355;BME280;8287;51.644;8.494;2023-03-15T08:22:43;100396.25;;;7.03;75.79
16355;BME280;8287;51.644;8.494;2023-03-15T08:25:11;100398.50;;;7.14;76.14
16355;BME280;8287;51.644;8.494;2023-03-15T08:27:44;100398.97;;;7.21;76.53
16355;BME280;8287;51.644;8.494;2023-03-15T08:30:13;100405.91;;;7.36;76.41
16355;BME280;8287;51.644;8.494;2023-03-15T08:32:41;100417.88;;;7.28;76.46
16355;BME280;8287;51.644;8.494;2023-03-15T08:35:08;100426.66;;;7.19;75.95
16355;BME280;8287;51.644;8.494;2023-03-15T08:37:36;100423.66;;;7.02;75.17
16355;BME280;8287;51.644;8.494;2023-03-15T08:40:04;100425.16;;;6.84;75.80
16355;BME280;8287;51.644;8.494;2023-03-15T08:42:33;100429.28;;;6.90;75.87
16355;BME280;8287;51.644;8.494;2023-03-15T08:45:00;100428.38;;;7.05;75.21
16355;BME280;8287;51.644;8.494;2023-03-15T08:47:28;100432.88;;;7.28;75.76
16355;BME280;8287;51.644;8.494;2023-03-15T08:49:55;100432.03;;;7.32;75.38
16355;BME280;8287;51.644;8.494;2023-03-15T08:52:21;100438.09;;;7.33;74.51
16355;BME280;8287;51.644;8.494;2023-03-15T08:54:48;100448.66;;;7.04;73.25
16355;BME280;8287;51.644;8.494;2023-03-15T08:57:15;100447.84;;;7.09;73.33
16355;BME280;8287;51.644;8.494;2023-03-15T08:59:41;100452.50;;;7.17;73.76
16355;BME280;8287;51.644;8.494;2023-03-15T09:02:09;100448.41;;;7.29;73.79
16355;BME280;8287;51.644;8.494;2023-03-15T09:04:37;100450.56;;;7.51;74.34
16355;BME280;8287;51.644;8.494;2023-03-15T09:07:04;100458.25;;;7.47;73.15
16355;BME280;8287;51.644;8.494;2023-03-15T09:09:31;100448.72;;;7.51;71.76
16355;BME280;8287;51.644;8.494;2023-03-15T09:11:57;100455.19;;;7.82;72.79
16355;BME280;8287;51.644;8.494;2023-03-15T09:14:24;100457.81;;;7.64;71.62
16355;BME280;8287;51.644;8.494;2023-03-15T09:16:51;100470.19;;;7.63;72.75
16355;BME280;8287;51.644;8.494;2023-03-15T09:19:17;100466.78;;;7.63;71.05
16355;BME280;8287;51.644;8.494;2023-03-15T09:21:46;100472.94;;;7.53;71.13
16355;BME280;8287;51.644;8.494;2023-03-15T09:24:13;100478.16;;;7.58;71.21
16355;BME280;8287;51.644;8.494;2023-03-15T09:26:39;100486.03;;;7.63;72.28
16355;BME280;8287;51.644;8.494;2023-03-15T09:29:06;100486.25;;;7.67;70.94
16355;BME280;8287;51.644;8.494;2023-03-15T09:31:34;100498.72;;;7.61;70.42
16355;BME280;8287;51.644;8.494;2023-03-15T09:34:01;100500.38;;;7.52;70.17
16355;BME280;8287;51.644;8.494;2023-03-15T09:36:29;100500.91;;;7.49;70.83
16355;BME280;8287;51.644;8.494;2023-03-15T09:38:57;100495.22;;;7.66;71.82
16355;BME280;8287;51.644;8.494;2023-03-15T09:41:36;100493.03;;;7.96;71.55
16355;BME280;8287;51.644;8.494;2023-03-15T09:44:15;100501.59;;;8.07;71.59
16355;BME280;8287;51.644;8.494;2023-03-15T09:46:51;100509.84;;;8.00;69.30
16355;BME280;8287;51.644;8.494;2023-03-15T09:49:31;100509.78;;;8.05;68.81
16355;BME280;8287;51.644;8.494;2023-03-15T09:52:03;100510.91;;;7.99;68.19
16355;BME280;8287;51.644;8.494;2023-03-15T09:54:38;100508.28;;;7.99;69.69
16355;BME280;8287;51.644;8.494;2023-03-15T09:57:13;100517.34;;;7.93;70.49
16355;BME280;8287;51.644;8.494;2023-03-15T09:59:43;100516.88;;;7.86;70.67
16355;BME280;8287;51.644;8.494;2023-03-15T10:02:17;100518.19;;;7.89;69.05
16355;BME280;8287;51.644;8.494;2023-03-15T10:04:48;100517.75;;;8.00;68.94
16355;BME280;8287;51.644;8.494;2023-03-15T10:07:17;100513.44;;;8.33;69.62
16355;BME280;8287;51.644;8.494;2023-03-15T10:09:45;100511.59;;;8.52;68.75
16355;BME280;8287;51.644;8.494;2023-03-15T10:12:14;100504.91;;;8.91;69.27
16355;BME280;8287;51.644;8.494;2023-03-15T10:15:00;100503.69;;;9.02;67.58
16355;BME280;8287;51.644;8.494;2023-03-15T10:17:36;100510.19;;;8.91;65.99
16355;BME280;8287;51.644;8.494;2023-03-15T10:20:09;100507.44;;;8.64;65.50
16355;BME280;8287;51.644;8.494;2023-03-15T10:22:43;100508.28;;;8.41;65.60
16355;BME280;8287;51.644;8.494;2023-03-15T10:25:15;100514.50;;;8.50;66.48
16355;BME280;8287;51.644;8.494;2023-03-15T10:27:47;100508.47;;;8.68;66.50
16355;BME280;8287;51.644;8.494;2023-03-15T10:30:17;100514.56;;;8.82;62.72
16355;BME280;8287;51.644;8.494;2023-03-15T10:32:48;100515.13;;;8.98;62.71
16355;BME280;8287;51.644;8.494;2023-03-15T10:35:18;100521.69;;;9.32;63.77
16355;BME280;8287;51.644;8.494;2023-03-15T10:37:46;100523.88;;;9.57;61.25
16355;BME280;8287;51.644;8.494;2023-03-15T10:40:14;100513.97;;;9.63;60.11
16355;BME280;8287;51.644;8.494;2023-03-15T10:42:42;100517.03;;;9.56;59.21
16355;BME280;8287;51.644;8.494;2023-03-15T10:45:19;100520.94;;;9.45;58.14
16355;BME280;8287;51.644;8.494;2023-03-15T10:47:47;100525.03;;;9.51;59.97
16355;BME280;8287;51.644;8.494;2023-03-15T10:50:17;100524.41;;;8.95;61.50
16355;BME280;8287;51.644;8.494;2023-03-15T10:52:44;100527.06;;;8.77;63.41
16355;BME280;8287;51.644;8.494;2023-03-15T10:55:17;100524.97;;;8.92;63.04
16355;BME280;8287;51.644;8.494;2023-03-15T10:57:51;100536.97;;;9.35;59.78
16355;BME280;8287;51.644;8.494;2023-03-15T11:00:26;100523.09;;;9.57;55.80
16355;BME280;8287;51.644;8.494;2023-03-15T11:03:03;100529.97;;;9.58;55.74
16355;BME280;8287;51.644;8.494;2023-03-15T11:05:31;100543.31;;;9.34;56.68
16355;BME280;8287;51.644;8.494;2023-03-15T11:08:04;100540.78;;;9.29;57.35
16355;BME280;8287;51.644;8.494;2023-03-15T11:10:37;100535.59;;;9.38;57.89
16355;BME280;8287;51.644;8.494;2023-03-15T11:13:10;100547.16;;;9.42;60.01
16355;BME280;8287;51.644;8.494;2023-03-15T11:15:37;100553.16;;;9.47;58.47
16355;BME280;8287;51.644;8.494;2023-03-15T11:18:04;100558.84;;;9.54;58.52
16355;BME280;8287;51.644;8.494;2023-03-15T11:20:35;100552.53;;;9.82;54.89
16355;BME280;8287;51.644;8.494;2023-03-15T11:23:13;100537.56;;;10.04;52.85
16355;BME280;8287;51.644;8.494;2023-03-15T11:25:42;100548.03;;;10.23;50.32
16355;BME280;8287;51.644;8.494;2023-03-15T11:28:16;100565.19;;;10.39;51.15
16355;BME280;8287;51.644;8.494;2023-03-15T11:30:44;100554.50;;;10.30;51.11
16355;BME280;8287;51.644;8.494;2023-03-15T11:33:26;100556.28;;;10.08;49.96
16355;BME280;8287;51.644;8.494;2023-03-15T11:35:58;100560.00;;;10.20;52.47
16355;BME280;8287;51.644;8.494;2023-03-15T11:38:31;100566.56;;;10.23;50.25
16355;BME280;8287;51.644;8.494;2023-03-15T11:41:06;100556.44;;;10.52;51.28
16355;BME280;8287;51.644;8.494;2023-03-15T11:43:45;100550.69;;;10.72;48.53
16355;BME280;8287;51.644;8.494;2023-03-15T11:46:20;100539.31;;;10.93;47.66
16355;BME280;8287;51.644;8.494;2023-03-15T11:48:55;100541.13;;;10.84;46.12
16355;BME280;8287;51.644;8.494;2023-03-15T11:51:28;100547.19;;;10.98;46.67
16355;BME280;8287;51.644;8.494;2023-03-15T11:54:05;100558.31;;;10.87;45.21
16355;BME280;8287;51.644;8.494;2023-03-15T11:56:53;100557.22;;;10.88;44.76
16355;BME280;8287;51.644;8.494;2023-03-15T11:59:24;100553.38;;;10.94;44.29
16355;BME280;8287;51.644;8.494;2023-03-15T12:04:41;100557.66;;;11.03;48.13
16355;BME280;8287;51.644;8.494;2023-03-15T12:07:30;100563.22;;;11.15;48.91
16355;BME280;8287;51.644;8.494;2023-03-15T12:10:19;100566.91;;;11.14;49.14
16355;BME280;8287;51.644;8.494;2023-03-15T12:12:57;100565.72;;;11.20;48.33
16355;BME280;8287;51.644;8.494;2023-03-15T12:15:45;100565.53;;;11.39;47.60
16355;BME280;8287;51.644;8.494;2023-03-15T12:18:17;100558.50;;;11.87;46.87
16355;BME280;8287;51.644;8.494;2023-03-15T12:20:55;100557.88;;;11.90;46.38
16355;BME280;8287;51.644;8.494;2023-03-15T12:23:36;100558.72;;;12.16;45.91
16355;BME280;8287;51.644;8.494;2023-03-15T12:26:09;100567.16;;;12.09;44.13
16355;BME280;8287;51.644;8.494;2023-03-15T12:28:41;100567.50;;;11.86;44.25
16355;BME280;8287;51.644;8.494;2023-03-15T12:31:15;100568.72;;;11.71;45.63
16355;BME280;8287;51.644;8.494;2023-03-15T12:33:47;100573.97;;;11.93;49.03
16355;BME280;8287;51.644;8.494;2023-03-15T12:36:20;100572.06;;;12.33;47.07
16355;BME280;8287;51.644;8.494;2023-03-15T12:39:01;100573.69;;;12.76;44.17
16355;BME280;8287;51.644;8.494;2023-03-15T12:41:35;100582.88;;;12.45;42.17
16355;BME280;8287;51.644;8.494;2023-03-15T12:44:24;100572.91;;;12.67;42.72
16355;BME280;8287;51.644;8.494;2023-03-15T12:46:56;100564.31;;;12.79;42.49
16355;BME280;8287;51.644;8.494;2023-03-15T12:49:32;100565.25;;;12.83;43.16
16355;BME280;8287;51.644;8.494;2023-03-15T12:52:03;100561.00;;;12.73;42.21
16355;BME280;8287;51.644;8.494;2023-03-15T12:54:36;100559.00;;;12.87;42.56
16355;BME280;8287;51.644;8.494;2023-03-15T12:57:05;100560.41;;;13.18;42.36
16355;BME280;8287;51.644;8.494;2023-03-15T12:59:36;100569.94;;;13.19;42.55
16355;BME280;8287;51.644;8.494;2023-03-15T13:02:26;100564.78;;;13.23;41.85
16355;BME280;8287;51.644;8.494;2023-03-15T13:05:15;100571.19;;;12.88;40.80
16355;BME280;8287;51.644;8.494;2023-03-15T13:07:53;100574.63;;;12.55;38.83
16355;BME280;8287;51.644;8.494;2023-03-15T13:10:34;100567.09;;;12.57;42.09
16355;BME280;8287;51.644;8.494;2023-03-15T13:13:10;100567.91;;;12.66;42.83
16355;BME280;8287;51.644;8.494;2023-03-15T13:15:43;100575.34;;;12.38;41.01
16355;BME280;8287;51.644;8.494;2023-03-15T13:18:21;100567.59;;;12.67;41.94
16355;BME280;8287;51.644;8.494;2023-03-15T13:21:08;100559.00;;;12.79;41.02
16355;BME280;8287;51.644;8.494;2023-03-15T13:23:42;100575.00;;;12.96;40.20
16355;BME280;8287;51.644;8.494;2023-03-15T13:26:35;100566.03;;;13.34;41.66
16355;BME280;8287;51.644;8.494;2023-03-15T13:29:10;100567.25;;;13.36;38.85